sensor_id;sensor_type;location;lat;lon;timestamp;P1;durP1;ratioP1;P2;durP2;ratioP2
26319;SDS011;14024;52.226;5.200;2022-10-04T00:01:28;25.92;;;10.38;;
26319;SDS011;14024;52.226;5.200;2022-10-04T00:04:04;25.80;;;9.52;;
26319;SDS011;14024;52.226;5.200;2022-10-04T00:06:31;19.65;;;9.15;;
26319;SDS011;14024;52.226;5.200;2022-10-04T00:09:04;20.52;;;9.90;;
26319;SDS011;14024;52.226;5.200;2022-10-04T00:11:35;23.85;;;11.00;;
26319;SDS011;14024;52.226;5.200;2022-10-04T00:16:46;21.02;;;10.45;;
26319;SDS011;14024;52.226;5.200;2022-10-04T00:32:24;18.70;;;10.55;;
26319;SDS011;14024;52.226;5.200;2022-10-04T00:34:44;24.38;;;10.93;;
26319;SDS011;14024;52.226;5.200;2022-10-04T00:37:15;25.00;;;11.05;;
26319;SDS011;14024;52.226;5.200;2022-10-04T00:39:42;29.92;;;11.77;;
26319;SDS011;14024;52.226;5.200;2022-10-04T00:47:11;26.98;;;10.85;;
26319;SDS011;14024;52.226;5.200;2022-10-04T00:49:39;24.17;;;10.68;;
26319;SDS011;14024;52.226;5.200;2022-10-04T00:52:08;29.65;;;12.88;;
26319;SDS011;14024;52.226;5.200;2022-10-04T00:54:38;27.75;;;10.27;;
26319;SDS011;14024;52.226;5.200;2022-10-04T00:57:12;18.40;;;10.15;;
26319;SDS011;14024;52.226;5.200;2022-10-04T00:59:42;23.83;;;10.55;;
26319;SDS011;14024;52.226;5.200;2022-10-04T01:04:51;27.98;;;11.30;;
26319;SDS011;14024;52.226;5.200;2022-10-04T01:07:21;27.33;;;10.55;;
26319;SDS011;14024;52.226;5.200;2022-10-04T01:09:50;20.77;;;11.00;;
26319;SDS011;14024;52.226;5.200;2022-10-04T01:12:24;25.85;;;11.20;;
26319;SDS011;14024;52.226;5.200;2022-10-04T01:17:17;24.02;;;11.07;;
26319;SDS011;14024;52.226;5.200;2022-10-04T01:19:53;20.88;;;11.35;;
26319;SDS011;14024;52.226;5.200;2022-10-04T01:22:30;27.00;;;11.52;;
26319;SDS011;14024;52.226;5.200;2022-10-04T01:24:57;22.95;;;11.25;;
26319;SDS011;14024;52.226;5.200;2022-10-04T01:27:40;17.40;;;11.48;;
26319;SDS011;14024;52.226;5.200;2022-10-04T01:30:08;19.10;;;11.40;;
26319;SDS011;14024;52.226;5.200;2022-10-04T01:32:36;24.50;;;11.82;;
26319;SDS011;14024;52.226;5.200;2022-10-04T01:35:02;22.80;;;12.63;;
26319;SDS011;14024;52.226;5.200;2022-10-04T01:37:28;27.25;;;12.88;;
26319;SDS011;14024;52.226;5.200;2022-10-04T01:39:54;25.58;;;12.63;;
26319;SDS011;14024;52.226;5.200;2022-10-04T01:42:25;20.58;;;12.40;;
26319;SDS011;14024;52.226;5.200;2022-10-04T01:44:56;20.58;;;11.77;;
26319;SDS011;14024;52.226;5.200;2022-10-04T01:47:34;24.88;;;12.80;;
26319;SDS011;14024;52.226;5.200;2022-10-04T01:50:02;25.02;;;12.88;;
26319;SDS011;14024;52.226;5.200;2022-10-04T01:52:49;25.77;;;11.75;;
26319;SDS011;14024;52.226;5.200;2022-10-04T01:55:22;27.75;;;12.05;;
26319;SDS011;14024;52.226;5.200;2022-10-04T01:57:51;33.85;;;13.25;;
26319;SDS011;14024;52.226;5.200;2022-10-04T02:00:19;28.15;;;12.93;;
26319;SDS011;14024;52.226;5.200;2022-10-04T02:02:49;26.45;;;13.32;;
26319;SDS011;14024;52.226;5.200;2022-10-04T02:05:17;27.92;;;13.32;;
26319;SDS011;14024;52.226;5.200;2022-10-04T02:07:44;25.92;;;12.73;;
26319;SDS011;14024;52.226;5.200;2022-10-04T02:10:14;29.50;;;14.38;;
26319;SDS011;14024;52.226;5.200;2022-10-04T02:12:42;28.80;;;13.40;;
26319;SDS011;14024;52.226;5.200;2022-10-04T02:15:10;23.73;;;12.25;;
26319;SDS011;14024;52.226;5.200;2022-10-04T02:17:37;37.70;;;13.82;;
26319;SDS011;14024;52.226;5.200;2022-10-04T02:20:08;23.77;;;13.80;;
26319;SDS011;14024;52.226;5.200;2022-10-04T02:22:34;29.77;;;13.18;;
26319;SDS011;14024;52.226;5.200;2022-10-04T02:25:00;31.13;;;14.02;;
26319;SDS011;14024;52.226;5.200;2022-10-04T02:27:27;31.88;;;13.60;;
26319;SDS011;14024;52.226;5.200;2022-10-04T02:30:31;27.42;;;13.65;;
26319;SDS011;14024;52.226;5.200;2022-10-04T02:32:47;28.80;;;14.43;;
26319;SDS011;14024;52.226;5.200;2022-10-04T02:35:33;28.90;;;13.85;;
26319;SDS011;14024;52.226;5.200;2022-10-04T02:38:08;23.27;;;13.95;;
26319;SDS011;14024;52.226;5.200;2022-10-04T02:40:37;31.35;;;15.85;;
26319;SDS011;14024;52.226;5.200;2022-10-04T02:43:13;30.25;;;14.50;;
26319;SDS011;14024;52.226;5.200;2022-10-04T02:45:43;33.50;;;14.00;;
26319;SDS011;14024;52.226;5.200;2022-10-04T02:48:33;27.83;;;14.15;;
26319;SDS011;14024;52.226;5.200;2022-10-04T02:50:59;29.38;;;14.15;;
26319;SDS011;14024;52.226;5.200;2022-10-04T02:53:32;37.03;;;14.90;;
26319;SDS011;14024;52.226;5.200;2022-10-04T02:56:01;33.25;;;15.07;;
26319;SDS011;14024;52.226;5.200;2022-10-04T02:58:28;29.80;;;15.32;;
26319;SDS011;14024;52.226;5.200;2022-10-04T03:00:55;28.20;;;15.82;;
26319;SDS011;14024;52.226;5.200;2022-10-04T03:03:28;30.70;;;14.88;;
26319;SDS011;14024;52.226;5.200;2022-10-04T03:08:21;33.50;;;16.15;;
26319;SDS011;14024;52.226;5.200;2022-10-04T03:10:47;30.73;;;16.20;;
26319;SDS011;14024;52.226;5.200;2022-10-04T03:13:14;37.70;;;15.75;;
26319;SDS011;14024;52.226;5.200;2022-10-04T03:15:42;34.33;;;16.63;;
26319;SDS011;14024;52.226;5.200;2022-10-04T03:18:08;25.83;;;15.98;;
26319;SDS011;14024;52.226;5.200;2022-10-04T03:20:35;35.60;;;16.58;;
26319;SDS011;14024;52.226;5.200;2022-10-04T03:23:01;35.13;;;15.82;;
26319;SDS011;14024;52.226;5.200;2022-10-04T03:25:29;31.48;;;15.68;;
26319;SDS011;14024;52.226;5.200;2022-10-04T03:28:00;33.63;;;16.25;;
26319;SDS011;14024;52.226;5.200;2022-10-04T03:30:27;31.38;;;16.50;;
26319;SDS011;14024;52.226;5.200;2022-10-04T03:32:55;36.08;;;17.13;;
26319;SDS011;14024;52.226;5.200;2022-10-04T03:35:26;35.35;;;18.13;;
26319;SDS011;14024;52.226;5.200;2022-10-04T03:37:53;32.03;;;16.73;;
26319;SDS011;14024;52.226;5.200;2022-10-04T03:40:20;29.70;;;16.40;;
26319;SDS011;14024;52.226;5.200;2022-10-04T03:42:51;26.75;;;16.95;;
26319;SDS011;14024;52.226;5.200;2022-10-04T03:45:17;32.63;;;16.60;;
26319;SDS011;14024;52.226;5.200;2022-10-04T03:47:45;34.13;;;17.27;;
26319;SDS011;14024;52.226;5.200;2022-10-04T03:52:38;35.53;;;18.42;;
26319;SDS011;14024;52.226;5.200;2022-10-04T03:55:06;29.63;;;17.42;;
26319;SDS011;14024;52.226;5.200;2022-10-04T03:57:33;34.25;;;17.58;;
26319;SDS011;14024;52.226;5.200;2022-10-04T03:59:59;34.70;;;18.38;;
26319;SDS011;14024;52.226;5.200;2022-10-04T04:02:29;35.03;;;19.63;;
26319;SDS011;14024;52.226;5.200;2022-10-04T04:07:45;34.22;;;17.45;;
26319;SDS011;14024;52.226;5.200;2022-10-04T04:10:16;42.58;;;18.77;;
26319;SDS011;14024;52.226;5.200;2022-10-04T04:12:45;36.83;;;18.77;;
26319;SDS011;14024;52.226;5.200;2022-10-04T04:15:13;42.35;;;19.35;;
26319;SDS011;14024;52.226;5.200;2022-10-04T04:18:25;34.70;;;18.77;;
26319;SDS011;14024;52.226;5.200;2022-10-04T04:20:38;36.63;;;18.73;;
26319;SDS011;14024;52.226;5.200;2022-10-04T04:23:17;35.47;;;18.70;;
26319;SDS011;14024;52.226;5.200;2022-10-04T04:25:46;36.10;;;18.65;;
26319;SDS011;14024;52.226;5.200;2022-10-04T04:30:49;34.30;;;18.58;;
26319;SDS011;14024;52.226;5.200;2022-10-04T04:33:20;35.53;;;17.13;;
26319;SDS011;14024;52.226;5.200;2022-10-04T04:35:47;34.45;;;18.45;;
26319;SDS011;14024;52.226;5.200;2022-10-04T04:38:23;36.70;;;18.58;;
26319;SDS011;14024;52.226;5.200;2022-10-04T04:40:49;36.67;;;19.13;;
26319;SDS011;14024;52.226;5.200;2022-10-04T04:43:19;40.25;;;18.95;;
26319;SDS011;14024;52.226;5.200;2022-10-04T04:45:46;44.38;;;19.38;;
26319;SDS011;14024;52.226;5.200;2022-10-04T04:48:13;38.38;;;18.73;;
26319;SDS011;14024;52.226;5.200;2022-10-04T04:50:40;33.42;;;19.83;;
26319;SDS011;14024;52.226;5.200;2022-10-04T04:53:18;36.45;;;19.10;;
26319;SDS011;14024;52.226;5.200;2022-10-04T04:55:46;31.70;;;18.48;;
26319;SDS011;14024;52.226;5.200;2022-10-04T04:58:16;31.33;;;19.85;;
26319;SDS011;14024;52.226;5.200;2022-10-04T05:00:53;42.28;;;21.48;;
26319;SDS011;14024;52.226;5.200;2022-10-04T05:03:19;39.83;;;20.27;;
26319;SDS011;14024;52.226;5.200;2022-10-04T05:05:46;37.75;;;19.67;;
26319;SDS011;14024;52.226;5.200;2022-10-04T05:08:19;39.67;;;20.33;;
26319;SDS011;14024;52.226;5.200;2022-10-04T05:13:15;38.80;;;20.55;;
26319;SDS011;14024;52.226;5.200;2022-10-04T05:15:41;38.15;;;20.80;;
26319;SDS011;14024;52.226;5.200;2022-10-04T05:18:21;37.90;;;21.40;;
26319;SDS011;14024;52.226;5.200;2022-10-04T05:23:18;38.65;;;21.30;;
26319;SDS011;14024;52.226;5.200;2022-10-04T05:25:44;36.95;;;20.27;;
26319;SDS011;14024;52.226;5.200;2022-10-04T05:28:10;38.83;;;21.33;;
26319;SDS011;14024;52.226;5.200;2022-10-04T05:30:58;36.55;;;20.40;;
26319;SDS011;14024;52.226;5.200;2022-10-04T05:36:29;38.08;;;20.23;;
26319;SDS011;14024;52.226;5.200;2022-10-04T05:39:07;36.05;;;21.33;;
26319;SDS011;14024;52.226;5.200;2022-10-04T05:44:22;42.22;;;20.77;;
26319;SDS011;14024;52.226;5.200;2022-10-04T05:46:55;40.70;;;21.23;;
26319;SDS011;14024;52.226;5.200;2022-10-04T05:49:22;39.33;;;21.23;;
26319;SDS011;14024;52.226;5.200;2022-10-04T05:54:18;37.30;;;21.02;;
26319;SDS011;14024;52.226;5.200;2022-10-04T05:56:53;44.60;;;21.85;;
26319;SDS011;14024;52.226;5.200;2022-10-04T06:04:48;45.17;;;21.40;;
26319;SDS011;14024;52.226;5.200;2022-10-04T06:07:32;41.60;;;20.58;;
26319;SDS011;14024;52.226;5.200;2022-10-04T06:15:13;41.03;;;20.63;;
26319;SDS011;14024;52.226;5.200;2022-10-04T06:20:28;37.78;;;20.45;;
26319;SDS011;14024;52.226;5.200;2022-10-04T06:22:59;35.22;;;21.35;;
26319;SDS011;14024;52.226;5.200;2022-10-04T06:25:28;43.50;;;21.25;;
26319;SDS011;14024;52.226;5.200;2022-10-04T06:30:35;43.25;;;21.60;;
26319;SDS011;14024;52.226;5.200;2022-10-04T06:46:16;42.70;;;22.20;;
26319;SDS011;14024;52.226;5.200;2022-10-04T06:59:32;41.58;;;22.58;;
26319;SDS011;14024;52.226;5.200;2022-10-04T07:05:04;39.97;;;21.15;;
26319;SDS011;14024;52.226;5.200;2022-10-04T07:07:36;39.67;;;20.30;;
26319;SDS011;14024;52.226;5.200;2022-10-04T07:10:49;35.70;;;20.05;;
26319;SDS011;14024;52.226;5.200;2022-10-04T07:15:44;44.55;;;20.38;;
26319;SDS011;14024;52.226;5.200;2022-10-04T07:18:22;39.65;;;19.67;;
26319;SDS011;14024;52.226;5.200;2022-10-04T07:20:51;43.40;;;20.15;;
26319;SDS011;14024;52.226;5.200;2022-10-04T07:23:25;39.97;;;19.38;;
26319;SDS011;14024;52.226;5.200;2022-10-04T07:25:53;40.30;;;19.13;;
26319;SDS011;14024;52.226;5.200;2022-10-04T07:28:22;38.03;;;19.05;;
26319;SDS011;14024;52.226;5.200;2022-10-04T07:31:10;38.80;;;18.60;;
26319;SDS011;14024;52.226;5.200;2022-10-04T07:33:45;35.40;;;18.95;;
26319;SDS011;14024;52.226;5.200;2022-10-04T07:36:17;39.00;;;18.95;;
26319;SDS011;14024;52.226;5.200;2022-10-04T07:38:52;37.60;;;19.27;;
26319;SDS011;14024;52.226;5.200;2022-10-04T07:44:01;33.85;;;17.25;;
26319;SDS011;14024;52.226;5.200;2022-10-04T07:48:57;30.08;;;15.98;;
26319;SDS011;14024;52.226;5.200;2022-10-04T07:51:32;30.15;;;18.15;;
26319;SDS011;14024;52.226;5.200;2022-10-04T07:54:01;37.92;;;17.38;;
26319;SDS011;14024;52.226;5.200;2022-10-04T08:09:26;34.10;;;17.08;;
26319;SDS011;14024;52.226;5.200;2022-10-04T08:19:51;31.30;;;15.80;;
26319;SDS011;14024;52.226;5.200;2022-10-04T08:22:22;31.02;;;15.70;;
26319;SDS011;14024;52.226;5.200;2022-10-04T08:27:25;32.63;;;15.55;;
26319;SDS011;14024;52.226;5.200;2022-10-04T08:29:57;28.85;;;14.85;;
26319;SDS011;14024;52.226;5.200;2022-10-04T08:43:22;25.33;;;14.15;;
26319;SDS011;14024;52.226;5.200;2022-10-04T08:59:23;22.17;;;12.30;;
26319;SDS011;14024;52.226;5.200;2022-10-04T09:01:57;27.17;;;11.43;;
26319;SDS011;14024;52.226;5.200;2022-10-04T09:17:15;24.15;;;12.45;;
26319;SDS011;14024;52.226;5.200;2022-10-04T09:27:33;24.55;;;11.85;;
26319;SDS011;14024;52.226;5.200;2022-10-04T09:45:41;26.88;;;12.80;;
26319;SDS011;14024;52.226;5.200;2022-10-04T09:48:24;25.27;;;10.15;;
26319;SDS011;14024;52.226;5.200;2022-10-04T09:59:08;28.50;;;11.40;;
26319;SDS011;14024;52.226;5.200;2022-10-04T10:07:03;22.90;;;11.27;;
26319;SDS011;14024;52.226;5.200;2022-10-04T10:09:40;24.88;;;12.25;;
26319;SDS011;14024;52.226;5.200;2022-10-04T10:12:33;20.30;;;11.07;;
26319;SDS011;14024;52.226;5.200;2022-10-04T10:15:25;25.35;;;12.10;;
26319;SDS011;14024;52.226;5.200;2022-10-04T10:20:52;19.73;;;10.73;;
26319;SDS011;14024;52.226;5.200;2022-10-04T10:23:37;24.55;;;10.38;;
26319;SDS011;14024;52.226;5.200;2022-10-04T10:37:06;17.35;;;10.38;;
26319;SDS011;14024;52.226;5.200;2022-10-04T10:52:37;18.67;;;9.85;;
26319;SDS011;14024;52.226;5.200;2022-10-04T11:08:44;17.67;;;8.43;;
26319;SDS011;14024;52.226;5.200;2022-10-04T11:27:10;16.67;;;9.10;;
26319;SDS011;14024;52.226;5.200;2022-10-04T11:37:17;15.73;;;8.13;;
26319;SDS011;14024;52.226;5.200;2022-10-04T11:45:19;18.25;;;8.40;;
26319;SDS011;14024;52.226;5.200;2022-10-04T11:55:34;14.00;;;7.70;;
26319;SDS011;14024;52.226;5.200;2022-10-04T12:06:18;13.93;;;6.85;;
26319;SDS011;14024;52.226;5.200;2022-10-04T12:14:26;16.67;;;6.28;;
26319;SDS011;14024;52.226;5.200;2022-10-04T12:22:19;14.27;;;6.30;;
26319;SDS011;14024;52.226;5.200;2022-10-04T12:27:49;15.73;;;6.30;;
26319;SDS011;14024;52.226;5.200;2022-10-04T12:30:24;18.00;;;7.88;;
26319;SDS011;14024;52.226;5.200;2022-10-04T12:33:14;15.40;;;7.57;;
26319;SDS011;14024;52.226;5.200;2022-10-04T12:35:59;15.90;;;6.75;;
26319;SDS011;14024;52.226;5.200;2022-10-04T12:38:39;18.90;;;7.18;;
26319;SDS011;14024;52.226;5.200;2022-10-04T12:49:20;16.13;;;6.90;;
26319;SDS011;14024;52.226;5.200;2022-10-04T12:52:23;18.83;;;7.88;;
26319;SDS011;14024;52.226;5.200;2022-10-04T12:59:52;16.17;;;7.65;;
26319;SDS011;14024;52.226;5.200;2022-10-04T13:20:37;16.80;;;8.27;;
26319;SDS011;14024;52.226;5.200;2022-10-04T13:30:53;16.13;;;7.82;;
26319;SDS011;14024;52.226;5.200;2022-10-04T13:58:27;18.40;;;8.70;;
26319;SDS011;14024;52.226;5.200;2022-10-04T14:09:06;19.40;;;6.93;;
26319;SDS011;14024;52.226;5.200;2022-10-04T14:16:51;13.65;;;7.22;;
26319;SDS011;14024;52.226;5.200;2022-10-04T14:19:38;12.80;;;6.70;;
26319;SDS011;14024;52.226;5.200;2022-10-04T14:27:46;12.65;;;7.53;;
26319;SDS011;14024;52.226;5.200;2022-10-04T14:35:30;13.75;;;7.78;;
26319;SDS011;14024;52.226;5.200;2022-10-04T14:38:09;17.42;;;8.07;;
26319;SDS011;14024;52.226;5.200;2022-10-04T14:48:40;13.80;;;6.75;;
26319;SDS011;14024;52.226;5.200;2022-10-04T15:01:22;14.02;;;6.93;;
26319;SDS011;14024;52.226;5.200;2022-10-04T15:06:53;19.85;;;6.70;;
26319;SDS011;14024;52.226;5.200;2022-10-04T15:11:49;16.33;;;7.65;;
26319;SDS011;14024;52.226;5.200;2022-10-04T15:14:24;15.13;;;7.53;;
26319;SDS011;14024;52.226;5.200;2022-10-04T15:16:53;14.10;;;7.82;;
26319;SDS011;14024;52.226;5.200;2022-10-04T15:29:54;13.32;;;7.72;;
26319;SDS011;14024;52.226;5.200;2022-10-04T15:32:26;17.67;;;8.30;;
26319;SDS011;14024;52.226;5.200;2022-10-04T15:35:15;14.48;;;7.90;;
26319;SDS011;14024;52.226;5.200;2022-10-04T15:43:04;15.00;;;7.32;;
26319;SDS011;14024;52.226;5.200;2022-10-04T15:45:46;14.90;;;7.50;;
26319;SDS011;14024;52.226;5.200;2022-10-04T15:56:18;16.85;;;7.90;;
26319;SDS011;14024;52.226;5.200;2022-10-04T16:06:41;17.17;;;7.70;;
26319;SDS011;14024;52.226;5.200;2022-10-04T16:09:34;16.92;;;7.95;;
26319;SDS011;14024;52.226;5.200;2022-10-04T16:14:33;14.50;;;7.40;;
26319;SDS011;14024;52.226;5.200;2022-10-04T16:17:22;18.92;;;8.18;;
26319;SDS011;14024;52.226;5.200;2022-10-04T16:22:25;17.73;;;8.77;;
26319;SDS011;14024;52.226;5.200;2022-10-04T16:24:52;18.02;;;8.48;;
26319;SDS011;14024;52.226;5.200;2022-10-04T16:30:10;12.10;;;7.88;;
26319;SDS011;14024;52.226;5.200;2022-10-04T16:35:14;15.45;;;8.07;;
26319;SDS011;14024;52.226;5.200;2022-10-04T16:37:45;19.05;;;8.95;;
26319;SDS011;14024;52.226;5.200;2022-10-04T16:42:58;16.15;;;7.88;;
26319;SDS011;14024;52.226;5.200;2022-10-04T16:47:55;18.60;;;7.93;;
26319;SDS011;14024;52.226;5.200;2022-10-04T16:53:22;12.68;;;8.38;;
26319;SDS011;14024;52.226;5.200;2022-10-04T16:55:56;28.20;;;8.43;;
26319;SDS011;14024;52.226;5.200;2022-10-04T17:03:36;19.45;;;7.57;;
26319;SDS011;14024;52.226;5.200;2022-10-04T17:06:13;15.05;;;7.82;;
26319;SDS011;14024;52.226;5.200;2022-10-04T17:08:46;20.05;;;8.02;;
26319;SDS011;14024;52.226;5.200;2022-10-04T17:13:51;15.70;;;7.90;;
26319;SDS011;14024;52.226;5.200;2022-10-04T17:16:37;18.65;;;8.25;;
26319;SDS011;14024;52.226;5.200;2022-10-04T17:19:16;15.77;;;8.13;;
26319;SDS011;14024;52.226;5.200;2022-10-04T17:29:15;16.23;;;8.23;;
26319;SDS011;14024;52.226;5.200;2022-10-04T17:31:49;14.20;;;7.60;;
26319;SDS011;14024;52.226;5.200;2022-10-04T17:51:01;14.27;;;7.15;;
26319;SDS011;14024;52.226;5.200;2022-10-04T17:53:48;12.02;;;7.50;;
26319;SDS011;14024;52.226;5.200;2022-10-04T17:56:44;14.25;;;7.57;;
26319;SDS011;14024;52.226;5.200;2022-10-04T17:59:12;19.17;;;7.72;;
26319;SDS011;14024;52.226;5.200;2022-10-04T18:01:43;15.10;;;7.32;;
26319;SDS011;14024;52.226;5.200;2022-10-04T18:06:49;15.88;;;7.30;;
26319;SDS011;14024;52.226;5.200;2022-10-04T18:11:48;13.30;;;7.68;;
26319;SDS011;14024;52.226;5.200;2022-10-04T18:16:55;15.32;;;7.78;;
26319;SDS011;14024;52.226;5.200;2022-10-04T18:21:53;12.90;;;7.50;;
26319;SDS011;14024;52.226;5.200;2022-10-04T18:24:27;12.60;;;8.18;;
26319;SDS011;14024;52.226;5.200;2022-10-04T18:27:00;18.17;;;8.18;;
26319;SDS011;14024;52.226;5.200;2022-10-04T18:29:42;19.05;;;8.35;;
26319;SDS011;14024;52.226;5.200;2022-10-04T18:35:18;16.80;;;8.82;;
26319;SDS011;14024;52.226;5.200;2022-10-04T18:37:50;16.80;;;8.38;;
26319;SDS011;14024;52.226;5.200;2022-10-04T18:40:21;16.95;;;9.38;;
26319;SDS011;14024;52.226;5.200;2022-10-04T18:42:54;15.20;;;8.65;;
26319;SDS011;14024;52.226;5.200;2022-10-04T18:45:26;15.95;;;9.05;;
26319;SDS011;14024;52.226;5.200;2022-10-04T18:47:53;15.73;;;9.05;;
26319;SDS011;14024;52.226;5.200;2022-10-04T18:53:01;14.55;;;8.45;;
26319;SDS011;14024;52.226;5.200;2022-10-04T18:55:32;19.85;;;9.85;;
26319;SDS011;14024;52.226;5.200;2022-10-04T19:04:16;19.23;;;9.27;;
26319;SDS011;14024;52.226;5.200;2022-10-04T19:06:45;18.35;;;9.50;;
26319;SDS011;14024;52.226;5.200;2022-10-04T19:09:23;20.60;;;8.80;;
26319;SDS011;14024;52.226;5.200;2022-10-04T19:11:55;16.73;;;9.45;;
26319;SDS011;14024;52.226;5.200;2022-10-04T19:14:41;13.95;;;8.55;;
26319;SDS011;14024;52.226;5.200;2022-10-04T19:17:24;15.75;;;8.63;;
26319;SDS011;14024;52.226;5.200;2022-10-04T19:19:59;13.07;;;8.93;;
26319;SDS011;14024;52.226;5.200;2022-10-04T19:32:52;15.63;;;8.35;;
26319;SDS011;14024;52.226;5.200;2022-10-04T19:35:23;14.75;;;8.30;;
26319;SDS011;14024;52.226;5.200;2022-10-04T19:40:39;16.42;;;8.20;;
26319;SDS011;14024;52.226;5.200;2022-10-04T19:48:17;14.00;;;7.50;;
26319;SDS011;14024;52.226;5.200;2022-10-04T19:50:48;17.58;;;7.60;;
26319;SDS011;14024;52.226;5.200;2022-10-04T19:53:17;13.50;;;7.43;;
26319;SDS011;14024;52.226;5.200;2022-10-04T19:55:56;15.30;;;7.75;;
26319;SDS011;14024;52.226;5.200;2022-10-04T19:58:41;11.52;;;7.25;;
26319;SDS011;14024;52.226;5.200;2022-10-04T20:03:37;17.75;;;7.18;;
26319;SDS011;14024;52.226;5.200;2022-10-04T20:06:03;15.20;;;8.68;;
26319;SDS011;14024;52.226;5.200;2022-10-04T20:19:17;16.25;;;7.72;;
26319;SDS011;14024;52.226;5.200;2022-10-04T20:21:44;18.58;;;8.48;;
26319;SDS011;14024;52.226;5.200;2022-10-04T20:26:55;12.82;;;7.65;;
26319;SDS011;14024;52.226;5.200;2022-10-04T20:29:55;13.70;;;7.63;;
26319;SDS011;14024;52.226;5.200;2022-10-04T20:34:54;16.20;;;8.15;;
26319;SDS011;14024;52.226;5.200;2022-10-04T20:37:20;13.48;;;8.75;;
26319;SDS011;14024;52.226;5.200;2022-10-04T20:47:45;19.58;;;8.13;;
26319;SDS011;14024;52.226;5.200;2022-10-04T20:52:41;16.27;;;8.43;;
26319;SDS011;14024;52.226;5.200;2022-10-04T20:55:12;15.18;;;8.35;;
26319;SDS011;14024;52.226;5.200;2022-10-04T20:57:41;14.68;;;9.13;;
26319;SDS011;14024;52.226;5.200;2022-10-04T21:00:17;16.58;;;9.10;;
26319;SDS011;14024;52.226;5.200;2022-10-04T21:02:44;13.80;;;8.32;;
26319;SDS011;14024;52.226;5.200;2022-10-04T21:05:10;18.40;;;8.63;;
26319;SDS011;14024;52.226;5.200;2022-10-04T21:07:37;16.88;;;8.18;;
26319;SDS011;14024;52.226;5.200;2022-10-04T21:10:08;14.85;;;9.23;;
26319;SDS011;14024;52.226;5.200;2022-10-04T21:12:40;14.27;;;8.30;;
26319;SDS011;14024;52.226;5.200;2022-10-04T21:15:27;13.25;;;8.43;;
26319;SDS011;14024;52.226;5.200;2022-10-04T21:18:05;16.20;;;8.18;;
26319;SDS011;14024;52.226;5.200;2022-10-04T21:23:07;19.92;;;8.45;;
26319;SDS011;14024;52.226;5.200;2022-10-04T21:25:33;14.68;;;8.07;;
26319;SDS011;14024;52.226;5.200;2022-10-04T21:30:44;16.50;;;8.50;;
26319;SDS011;14024;52.226;5.200;2022-10-04T21:33:10;15.73;;;8.07;;
26319;SDS011;14024;52.226;5.200;2022-10-04T21:35:36;14.25;;;8.10;;
26319;SDS011;14024;52.226;5.200;2022-10-04T21:38:02;17.40;;;8.45;;
26319;SDS011;14024;52.226;5.200;2022-10-04T21:40:28;16.15;;;7.47;;
26319;SDS011;14024;52.226;5.200;2022-10-04T21:42:54;13.30;;;7.63;;
26319;SDS011;14024;52.226;5.200;2022-10-04T21:45:20;19.90;;;8.80;;
26319;SDS011;14024;52.226;5.200;2022-10-04T21:47:46;12.90;;;7.25;;
26319;SDS011;14024;52.226;5.200;2022-10-04T21:50:12;11.75;;;7.43;;
26319;SDS011;14024;52.226;5.200;2022-10-04T21:52:38;12.23;;;6.90;;
26319;SDS011;14024;52.226;5.200;2022-10-04T21:55:04;12.18;;;6.57;;
26319;SDS011;14024;52.226;5.200;2022-10-04T21:57:34;12.13;;;7.03;;
26319;SDS011;14024;52.226;5.200;2022-10-04T22:00:00;12.15;;;7.25;;
26319;SDS011;14024;52.226;5.200;2022-10-04T22:02:26;13.50;;;7.53;;
26319;SDS011;14024;52.226;5.200;2022-10-04T22:04:52;11.07;;;6.00;;
26319;SDS011;14024;52.226;5.200;2022-10-04T22:07:18;9.88;;;6.35;;
26319;SDS011;14024;52.226;5.200;2022-10-04T22:09:44;12.65;;;6.93;;
26319;SDS011;14024;52.226;5.200;2022-10-04T22:12:10;10.05;;;5.72;;
26319;SDS011;14024;52.226;5.200;2022-10-04T22:14:36;11.25;;;6.00;;
26319;SDS011;14024;52.226;5.200;2022-10-04T22:17:01;13.77;;;6.68;;
26319;SDS011;14024;52.226;5.200;2022-10-04T22:19:27;16.17;;;7.20;;
26319;SDS011;14024;52.226;5.200;2022-10-04T22:21:53;14.50;;;7.10;;
26319;SDS011;14024;52.226;5.200;2022-10-04T22:24:20;14.55;;;7.38;;
26319;SDS011;14024;52.226;5.200;2022-10-04T22:26:46;13.48;;;7.13;;
26319;SDS011;14024;52.226;5.200;2022-10-04T22:29:13;11.23;;;7.00;;
26319;SDS011;14024;52.226;5.200;2022-10-04T22:31:39;11.82;;;6.68;;
26319;SDS011;14024;52.226;5.200;2022-10-04T22:34:07;14.85;;;7.10;;
26319;SDS011;14024;52.226;5.200;2022-10-04T22:39:02;14.20;;;7.53;;
26319;SDS011;14024;52.226;5.200;2022-10-04T22:41:29;18.05;;;8.00;;
26319;SDS011;14024;52.226;5.200;2022-10-04T22:43:57;16.92;;;7.93;;
26319;SDS011;14024;52.226;5.200;2022-10-04T22:46:27;16.17;;;7.85;;
26319;SDS011;14024;52.226;5.200;2022-10-04T22:48:57;23.77;;;7.75;;
26319;SDS011;14024;52.226;5.200;2022-10-04T22:51:25;12.13;;;7.78;;
26319;SDS011;14024;52.226;5.200;2022-10-04T22:53:52;13.75;;;8.27;;
26319;SDS011;14024;52.226;5.200;2022-10-04T22:56:18;14.45;;;8.75;;
26319;SDS011;14024;52.226;5.200;2022-10-04T22:58:44;18.45;;;8.45;;
26319;SDS011;14024;52.226;5.200;2022-10-04T23:01:15;14.77;;;8.32;;
26319;SDS011;14024;52.226;5.200;2022-10-04T23:03:45;12.90;;;8.38;;
26319;SDS011;14024;52.226;5.200;2022-10-04T23:06:11;14.50;;;8.05;;
26319;SDS011;14024;52.226;5.200;2022-10-04T23:08:39;13.70;;;8.27;;
26319;SDS011;14024;52.226;5.200;2022-10-04T23:11:05;15.80;;;7.93;;
26319;SDS011;14024;52.226;5.200;2022-10-04T23:13:31;17.70;;;8.75;;
26319;SDS011;14024;52.226;5.200;2022-10-04T23:16:08;14.05;;;8.02;;
26319;SDS011;14024;52.226;5.200;2022-10-04T23:18:34;15.40;;;7.90;;
26319;SDS011;14024;52.226;5.200;2022-10-04T23:21:00;15.48;;;8.88;;
26319;SDS011;14024;52.226;5.200;2022-10-04T23:23:27;17.35;;;7.97;;
26319;SDS011;14024;52.226;5.200;2022-10-04T23:25:55;14.70;;;8.18;;
26319;SDS011;14024;52.226;5.200;2022-10-04T23:28:21;14.80;;;8.00;;
26319;SDS011;14024;52.226;5.200;2022-10-04T23:30:54;12.30;;;7.97;;
26319;SDS011;14024;52.226;5.200;2022-10-04T23:33:22;13.95;;;8.15;;
26319;SDS011;14024;52.226;5.200;2022-10-04T23:35:48;13.40;;;7.60;;
26319;SDS011;14024;52.226;5.200;2022-10-04T23:38:16;14.60;;;7.78;;
26319;SDS011;14024;52.226;5.200;2022-10-04T23:40:43;16.23;;;7.97;;
26319;SDS011;14024;52.226;5.200;2022-10-04T23:43:30;15.30;;;7.93;;
26319;SDS011;14024;52.226;5.200;2022-10-04T23:45:55;16.38;;;7.90;;
26319;SDS011;14024;52.226;5.200;2022-10-04T23:48:25;14.63;;;8.45;;
26319;SDS011;14024;52.226;5.200;2022-10-04T23:50:53;16.63;;;7.78;;
26319;SDS011;14024;52.226;5.200;2022-10-04T23:53:23;19.63;;;9.00;;
26319;SDS011;14024;52.226;5.200;2022-10-04T23:55:50;15.45;;;8.70;;
26319;SDS011;14024;52.226;5.200;2022-10-04T23:58:20;14.23;;;8.25;;
